Time;durP1;ratioP1;P1;durP2;ratioP2;P2;SDS_P1;SDS_P2;PMS_P1;PMS_P2;Temp;Humidity;BMP_temperature;BMP_pressure;BME280_temperature;BME280_humidity;BME280_pressure;Samples;Min_cycle;Max_cycle;Signal;HPM_P1;HPM_P2
2023/06/07 00:02:27;;;;;;;3.80;3.42;;;11.00;99.90;12.00;94284.00;;;;7380535;19;20183;-75
2023/06/07 00:05:12;;;;;;;6.25;3.67;;;10.90;99.90;12.00;94308.00;;;;7382572;19;20227;-73
2023/06/07 00:07:42;;;;;;;4.35;3.55;;;10.90;99.90;12.00;94292.00;;;;7382802;19;20159;-75
2023/06/07 00:10:16;;;;;;;4.07;3.50;;;10.90;99.90;11.70;94287.00;;;;7381641;19;20157;-75
2023/06/07 00:12:43;;;;;;;4.00;3.60;;;10.90;99.90;11.70;94308.00;;;;7382434;19;20255;-75
2023/06/07 00:15:20;;;;;;;6.20;3.38;;;10.80;99.90;11.70;94306.00;;;;7380850;19;20148;-75
2023/06/07 00:17:48;;;;;;;6.28;3.60;;;10.80;99.90;11.70;94297.00;;;;7389001;19;20148;-74
2023/06/07 00:20:22;;;;;;;5.22;3.75;;;10.70;99.90;11.60;94278.00;;;;7391364;19;20139;-75
2023/06/07 00:22:55;;;;;;;3.97;3.58;;;10.70;1.00;11.60;94300.00;;;;7388741;19;20177;-75
2023/06/07 00:25:29;;;;;;;4.63;4.03;;;10.60;1.00;11.60;94300.00;;;;7388942;19;20218;-74
2023/06/07 00:28:03;;;;;;;6.65;3.45;;;10.60;1.00;11.70;94304.00;;;;7389164;19;20655;-75
2023/06/07 00:30:30;;;;;;;5.63;3.70;;;10.60;1.00;11.60;94290.00;;;;7388246;19;20204;-75
2023/06/07 00:33:04;;;;;;;5.18;3.90;;;10.60;1.00;11.60;94290.00;;;;7389305;19;20157;-77
2023/06/07 00:35:39;;;;;;;4.32;3.47;;;10.60;1.00;11.60;94297.00;;;;7387770;19;20220;-73
2023/06/07 00:38:20;;;;;;;5.53;3.55;;;10.60;1.00;11.60;94303.00;;;;7386766;19;20144;-75
2023/06/07 00:40:54;;;;;;;4.33;3.53;;;10.60;1.00;11.40;94295.00;;;;7388317;19;20514;-73
2023/06/07 00:43:29;;;;;;;4.00;3.60;;;10.50;1.00;11.40;94281.00;;;;7389430;19;20125;-72
2023/06/07 00:46:05;;;;;;;4.63;3.70;;;10.50;1.00;11.50;94284.00;;;;7389293;19;20615;-73
2023/06/07 00:48:40;;;;;;;7.22;4.30;;;10.50;1.00;11.50;94291.00;;;;7387881;19;20459;-73
2023/06/07 00:51:07;;;;;;;4.83;3.80;;;10.50;1.00;11.50;94269.00;;;;7388654;19;20482;-75
2023/06/07 00:53:44;;;;;;;4.63;4.13;;;10.50;1.00;11.40;94246.00;;;;7387050;19;20133;-75
2023/06/07 00:56:19;;;;;;;4.77;3.90;;;10.40;1.00;11.40;94290.00;;;;7391542;19;20124;-74
2023/06/07 00:58:52;;;;;;;4.53;3.67;;;10.40;1.00;11.20;94291.00;;;;7390556;19;20237;-73
2023/06/07 01:01:20;;;;;;;4.63;4.03;;;10.40;5.70;11.20;94267.00;;;;7384794;19;20177;-73
2023/06/07 01:03:56;;;;;;;4.87;4.00;;;10.40;21.90;11.50;94236.00;;;;7387640;19;20128;-75
2023/06/07 01:06:24;;;;;;;4.27;3.87;;;10.40;51.90;11.40;94289.00;;;;7390397;19;20125;-74
2023/06/07 01:08:58;;;;;;;6.23;4.23;;;10.40;1.00;11.40;94243.00;;;;7388291;19;20128;-73
2023/06/07 01:11:35;;;;;;;5.80;4.00;;;10.40;50.00;11.30;94247.00;;;;7388009;19;20129;-75
2023/06/07 01:14:12;;;;;;;5.10;4.07;;;10.30;18.70;11.30;94254.00;;;;7390553;19;20129;-72
2023/06/07 01:16:50;;;;;;;6.40;4.20;;;10.30;60.20;11.30;94274.00;;;;7387180;19;20148;-73
2023/06/07 01:19:22;;;;;;;4.55;3.97;;;10.30;99.90;11.30;94289.00;;;;7388276;19;20201;-75
2023/06/07 01:22:06;;;;;;;5.70;4.20;;;10.30;99.90;11.30;94289.00;;;;7389441;19;20599;-72
2023/06/07 01:24:43;;;;;;;5.75;3.80;;;10.30;99.90;11.10;94269.00;;;;7387495;19;20606;-73
2023/06/07 01:27:17;;;;;;;6.10;4.30;;;10.20;99.90;11.20;94237.00;;;;7385660;19;21973;-73
2023/06/07 01:30:02;;;;;;;4.50;4.10;;;10.20;99.90;11.10;94282.00;;;;7388485;19;20129;-73
2023/06/07 01:32:31;;;;;;;7.68;4.57;;;10.20;99.90;11.20;94281.00;;;;7387708;19;20580;-73
2023/06/07 01:35:08;;;;;;;6.53;4.00;;;10.20;99.90;11.20;94272.00;;;;7388665;19;20144;-74
2023/06/07 01:37:50;;;;;;;4.87;4.37;;;10.20;99.90;11.30;94277.00;;;;7385694;19;20186;-73
2023/06/07 01:40:20;;;;;;;7.55;4.38;;;10.20;99.90;11.20;94222.00;;;;7388351;19;20117;-75
2023/06/07 01:42:55;;;;;;;5.43;4.00;;;10.20;99.90;11.30;94256.00;;;;7387642;19;20933;-74
2023/06/07 01:45:27;;;;;;;4.50;3.93;;;10.20;99.90;11.30;94263.00;;;;7384651;19;20155;-73
2023/06/07 01:48:02;;;;;;;5.43;4.50;;;10.30;99.90;11.30;94271.00;;;;7386570;19;20129;-72
2023/06/07 01:50:31;;;;;;;5.82;4.03;;;10.20;99.90;11.20;94269.00;;;;7388677;19;20604;-75
2023/06/07 01:53:05;;;;;;;6.00;4.30;;;10.20;99.90;11.00;94254.00;;;;7385009;19;20164;-73
2023/06/07 01:55:33;;;;;;;4.40;4.00;;;10.10;99.90;11.00;94269.00;;;;7385739;19;20143;-75
2023/06/07 01:58:46;;;;;;;5.90;4.30;;;10.10;99.90;11.00;94214.00;;;;7388252;19;20465;-75
2023/06/07 02:01:57;;;;;;;5.68;4.53;;;10.10;99.90;11.20;94272.00;;;;7383659;19;20236;-75
2023/06/07 02:04:28;;;;;;;5.80;4.37;;;10.10;1.00;11.20;94251.00;;;;7387203;19;20196;-74
2023/06/07 02:07:08;;;;;;;6.00;4.65;;;10.10;1.00;11.30;94253.00;;;;7387934;19;20577;-74
2023/06/07 02:09:41;;;;;;;5.40;4.33;;;10.10;1.00;11.20;94238.00;;;;7386452;19;20485;-72
2023/06/07 02:12:17;;;;;;;4.90;4.40;;;10.20;1.00;11.20;94254.00;;;;7388207;19;20161;-75
2023/06/07 02:14:48;;;;;;;4.83;4.20;;;10.20;1.00;11.20;94219.00;;;;7385156;19;20113;-74
2023/06/07 02:17:23;;;;;;;4.77;4.33;;;10.10;1.00;11.10;94218.00;;;;7384122;19;20140;-74
2023/06/07 02:19:50;;;;;;;5.63;4.90;;;10.10;1.00;11.10;94217.00;;;;7386974;19;20585;-74
2023/06/07 02:22:25;;;;;;;8.90;4.63;;;10.10;1.00;11.20;94241.00;;;;7385669;19;20152;-74
2023/06/07 02:24:53;;;;;;;5.80;4.73;;;10.10;1.00;11.20;94203.00;;;;7384093;19;20132;-75
2023/06/07 02:27:28;;;;;;;7.77;4.47;;;10.10;1.00;11.10;94231.00;;;;7388276;19;20116;-75
2023/06/07 02:29:55;;;;;;;4.57;3.97;;;10.00;1.00;11.10;94219.00;;;;7387251;19;20129;-74
2023/06/07 02:32:33;;;;;;;5.00;4.50;;;10.00;1.00;11.00;94205.00;;;;7384689;19;21095;-75
2023/06/07 02:35:01;;;;;;;5.20;4.43;;;9.90;1.00;10.90;94257.00;;;;7388063;19;20525;-74
2023/06/07 02:37:42;;;;;;;5.37;4.57;;;9.90;1.00;11.00;94256.00;;;;7385081;19;20152;-74
2023/06/07 02:40:23;;;;;;;5.60;4.97;;;9.90;1.00;11.00;94257.00;;;;7385748;19;20140;-73
2023/06/07 02:42:57;;;;;;;4.87;4.37;;;9.90;1.00;11.10;94232.00;;;;7385981;19;20125;-73
2023/06/07 02:45:24;;;;;;;5.50;4.67;;;9.90;1.00;10.90;94261.00;;;;7384426;19;20215;-73
2023/06/07 02:47:59;;;;;;;5.67;4.20;;;9.90;1.00;10.80;94241.00;;;;7385707;19;20141;-74
2023/06/07 02:50:27;;;;;;;4.87;4.20;;;9.80;1.00;10.70;94262.00;;;;7387105;19;20159;-74
2023/06/07 02:53:01;;;;;;;5.30;4.70;;;9.80;1.00;10.70;94259.00;;;;7383662;19;20154;-73
2023/06/07 02:55:30;;;;;;;7.20;4.83;;;9.70;8.10;10.80;94262.00;;;;7383824;19;20144;-75
2023/06/07 02:58:05;;;;;;;6.70;4.87;;;9.70;99.90;10.90;94249.00;;;;7384042;19;20647;-72
2023/06/07 03:00:32;;;;;;;11.13;4.83;;;9.80;99.90;10.90;94222.00;;;;7383710;19;20145;-74
2023/06/07 03:03:06;;;;;;;8.17;5.07;;;9.80;99.90;10.80;94266.00;;;;7382288;19;20132;-72
2023/06/07 03:05:40;;;;;;;6.47;4.70;;;9.80;99.90;10.80;94272.00;;;;7384397;19;20609;-75
2023/06/07 03:08:15;;;;;;;5.90;4.70;;;9.80;99.90;10.80;94266.00;;;;7385249;19;20129;-74
2023/06/07 03:10:49;;;;;;;6.47;4.70;;;9.80;99.90;10.80;94240.00;;;;7383279;19;20136;-73
2023/06/07 03:13:16;;;;;;;5.83;4.77;;;9.80;99.90;10.70;94160.00;;;;7384733;19;20209;-75
2023/06/07 03:15:50;;;;;;;8.30;4.93;;;9.70;99.90;10.70;94259.00;;;;7385285;19;20244;-73
2023/06/07 03:18:18;;;;;;;5.87;4.63;;;9.70;99.90;10.70;94258.00;;;;7386793;19;20143;-75
2023/06/07 03:20:47;;;;;;;7.27;5.20;;;9.70;99.90;10.70;94267.00;;;;7385774;19;20149;-73
2023/06/07 03:23:21;;;;;;;6.67;5.13;;;9.70;99.90;10.70;94265.00;;;;7384750;19;20231;-73
2023/06/07 03:25:52;;;;;;;11.00;5.00;;;9.70;99.90;10.70;94266.00;;;;7384637;19;20586;-74
2023/06/07 03:28:27;;;;;;;8.03;5.13;;;9.70;99.90;10.70;94214.00;;;;7388021;19;20660;-74
2023/06/07 03:30:55;;;;;;;5.20;4.70;;;9.70;99.90;10.70;94261.00;;;;7387148;19;20497;-74
2023/06/07 03:33:22;;;;;;;5.03;4.47;;;9.60;99.90;10.70;94261.00;;;;7384845;19;21000;-74
2023/06/07 03:35:57;;;;;;;6.90;5.27;;;9.70;99.90;10.70;94263.00;;;;7388686;19;20592;-72
2023/06/07 03:38:36;;;;;;;5.97;5.37;;;9.70;99.90;10.80;94219.00;;;;7383564;19;20208;-75
2023/06/07 03:41:11;;;;;;;6.30;4.90;;;9.70;99.90;10.70;94262.00;;;;7388241;19;20155;-73
2023/06/07 03:43:45;;;;;;;6.23;4.60;;;9.80;99.90;10.70;94259.00;;;;7387577;19;20620;-73
2023/06/07 03:46:19;;;;;;;9.93;4.77;;;9.80;99.90;10.70;94237.00;;;;7388186;19;20151;-72
2023/06/07 03:48:46;;;;;;;6.87;4.67;;;9.70;99.90;10.70;94261.00;;;;7385680;19;20510;-73
2023/06/07 03:51:20;;;;;;;6.60;4.77;;;9.70;99.90;10.70;94254.00;;;;7388690;19;20140;-72
2023/06/07 03:53:55;;;;;;;5.10;4.60;;;9.70;99.90;10.80;94261.00;;;;7394398;19;20151;-74
2023/06/07 03:56:37;;;;;;;4.93;4.40;;;9.80;99.90;10.80;94221.00;;;;7394143;19;20140;-72
2023/06/07 03:59:06;;;;;;;7.33;4.87;;;9.80;99.90;10.90;94221.00;;;;7394306;19;20144;-74
2023/06/07 04:01:40;;;;;;;5.70;4.87;;;9.80;99.90;11.00;94255.00;;;;7392949;19;20167;-75
2023/06/07 04:04:14;;;;;;;5.57;4.50;;;9.90;99.90;11.10;94216.00;;;;7392038;19;20584;-73
2023/06/07 04:06:48;;;;;;;5.43;4.33;;;10.00;99.90;11.20;94212.00;;;;7395454;19;20476;-74
2023/06/07 04:09:22;;;;;;;7.90;4.53;;;10.00;99.90;11.30;94204.00;;;;7392066;19;20144;-74
2023/06/07 04:11:59;;;;;;;5.33;4.27;;;10.10;99.90;11.20;94239.00;;;;7394415;19;20144;-75
2023/06/07 04:14:34;;;;;;;5.33;4.27;;;10.10;99.90;11.30;94236.00;;;;7395427;19;20139;-72
2023/06/07 04:17:07;;;;;;;6.07;4.87;;;10.20;99.90;11.30;94211.00;;;;7392717;19;20129;-74
2023/06/07 04:19:41;;;;;;;7.50;4.30;;;10.20;64.90;11.40;94252.00;;;;7392034;19;20240;-75
2023/06/07 04:22:30;;;;;;;4.70;4.30;;;10.30;71.00;11.50;94222.00;;;;7393510;19;20129;-74
2023/06/07 04:25:05;;;;;;;5.63;4.20;;;10.30;64.90;11.60;94229.00;;;;7393174;19;20581;-75
2023/06/07 04:27:34;;;;;;;4.60;4.00;;;10.40;52.30;11.70;94226.00;;;;7392197;19;20207;-74
2023/06/07 04:30:10;;;;;;;8.65;4.43;;;10.40;28.40;11.80;94231.00;;;;7394074;19;20116;-72
2023/06/07 04:32:39;;;;;;;5.03;4.10;;;10.50;11.40;11.90;94231.00;;;;7393445;19;20141;-74
2023/06/07 04:35:14;;;;;;;5.10;3.53;;;10.60;1.00;12.00;94258.00;;;;7391865;19;20191;-74
2023/06/07 04:37:45;;;;;;;4.63;3.80;;;10.80;1.00;12.10;94209.00;;;;7391186;19;20545;-74
2023/06/07 04:40:26;;;;;;;6.18;4.03;;;10.90;1.00;12.30;94260.00;;;;7394067;19;20137;-74
2023/06/07 04:42:55;;;;;;;4.85;4.00;;;11.00;1.00;12.40;94242.00;;;;7393425;19;20206;-74
2023/06/07 04:45:31;;;;;;;3.80;3.22;;;11.10;1.00;12.50;94246.00;;;;7389972;19;20180;-73
2023/06/07 04:48:00;;;;;;;7.07;4.20;;;11.20;1.00;12.70;94216.00;;;;7393421;19;20154;-75
2023/06/07 04:50:38;;;;;;;4.13;3.70;;;11.40;1.00;12.80;94233.00;;;;7392239;19;20140;-75
2023/06/07 04:53:19;;;;;;;5.35;3.65;;;11.50;1.00;13.00;94228.00;;;;7390562;19;20152;-74
2023/06/07 04:55:53;;;;;;;5.40;3.80;;;11.70;99.90;13.20;94239.00;;;;7392041;19;20537;-74
2023/06/07 04:58:27;;;;;;;6.88;3.85;;;11.90;99.90;13.30;94249.00;;;;7391268;19;20183;-74
2023/06/07 05:00:56;;;;;;;3.85;3.40;;;12.00;99.90;13.50;94216.00;;;;7389671;19;20194;-74
2023/06/07 05:03:31;;;;;;;3.80;3.35;;;12.20;99.90;13.70;94245.00;;;;7392445;19;20518;-74
2023/06/07 05:06:09;;;;;;;3.35;3.00;;;12.40;32.90;14.00;94248.00;;;;7390146;19;20135;-74
2023/06/07 05:08:36;;;;;;;4.18;3.60;;;12.60;1.00;14.20;94243.00;;;;7390921;19;20167;-74
2023/06/07 05:11:12;;;;;;;4.25;3.15;;;12.80;1.00;14.40;94247.00;;;;7389915;19;21122;-73
2023/06/07 05:13:49;;;;;;;3.10;2.80;;;13.00;1.00;14.50;94212.00;;;;7392671;19;20121;-74
2023/06/07 05:16:24;;;;;;;3.53;3.10;;;13.20;99.90;14.80;94236.00;;;;7392278;19;20151;-74
2023/06/07 05:18:56;;;;;;;3.88;2.70;;;13.50;99.90;15.00;94209.00;;;;7389597;19;20129;-73
2023/06/07 05:21:30;;;;;;;4.93;3.10;;;13.70;1.00;15.20;94209.00;;;;7393093;19;20196;-74
2023/06/07 05:24:05;;;;;;;3.00;2.70;;;14.00;1.00;15.40;94239.00;;;;7392551;19;20673;-73
2023/06/07 05:26:43;;;;;;;3.90;3.10;;;14.10;1.00;15.60;94223.00;;;;7389360;19;20757;-73
2023/06/07 05:29:17;;;;;;;3.05;2.83;;;14.30;1.00;15.90;94239.00;;;;7390934;19;20120;-74
2023/06/07 05:31:51;;;;;;;3.50;2.78;;;14.50;1.00;16.10;94218.00;;;;7390839;19;20177;-74
2023/06/07 05:34:25;;;;;;;4.88;2.75;;;14.70;99.90;16.30;94229.00;;;;7390057;19;20128;-71
2023/06/07 05:37:12;;;;;;;3.35;2.40;;;14.80;99.90;16.40;94210.00;;;;7387558;19;20232;-73
2023/06/07 05:39:48;;;;;;;4.28;1.90;;;15.00;99.90;16.40;94222.00;;;;7391051;19;20137;-74
2023/06/07 05:42:15;;;;;;;4.07;1.95;;;15.20;99.90;16.60;94223.00;;;;7390247;19;20612;-73
2023/06/07 05:44:50;;;;;;;4.63;2.10;;;15.30;99.90;16.80;94223.00;;;;7389983;19;20610;-74
2023/06/07 05:47:25;;;;;;;2.30;2.10;;;15.40;99.90;17.00;94217.00;;;;7389287;19;20144;-72
2023/06/07 05:49:54;;;;;;;2.65;2.20;;;15.70;99.90;17.10;94210.00;;;;7391894;19;20148;-73
2023/06/07 05:52:28;;;;;;;2.85;2.38;;;15.80;99.90;17.30;94223.00;;;;7388516;19;20148;-74
2023/06/07 05:54:57;;;;;;;2.80;2.22;;;16.00;99.90;17.40;94218.00;;;;7391674;19;20144;-72
2023/06/07 05:57:31;;;;;;;5.43;2.15;;;16.30;1.00;17.70;94221.00;;;;7388971;19;21367;-75
2023/06/07 05:59:58;;;;;;;4.55;2.17;;;16.50;1.00;18.10;94229.00;;;;7388028;19;20652;-72
2023/06/07 06:02:29;;;;;;;3.35;2.30;;;16.90;1.00;18.20;94197.00;;;;7388233;19;20148;-74
2023/06/07 06:05:06;;;;;;;3.53;2.22;;;17.20;1.00;18.40;94229.00;;;;7390505;19;20567;-73
2023/06/07 06:07:42;;;;;;;4.82;2.20;;;17.60;1.00;18.60;94173.00;;;;7387542;19;20153;-72
2023/06/07 06:10:18;;;;;;;2.92;2.33;;;17.80;1.00;18.70;94216.00;;;;7388383;19;20135;-73
2023/06/07 06:12:53;;;;;;;2.30;2.10;;;18.10;1.00;19.10;94237.00;;;;7389591;19;20164;-74
2023/06/07 06:15:26;;;;;;;3.75;2.53;;;18.40;1.00;19.60;94195.00;;;;7386566;19;20156;-72
2023/06/07 06:18:00;;;;;;;7.65;2.30;;;18.60;1.00;20.30;94197.00;;;;7387693;19;20477;-74
2023/06/07 06:20:36;;;;;;;6.00;2.40;;;18.70;1.00;20.60;94228.00;;;;7388189;19;20124;-73
2023/06/07 06:23:07;;;;;;;3.72;2.50;;;18.80;1.00;20.80;94236.00;;;;7389079;19;20516;-74
2023/06/07 06:25:41;;;;;;;3.55;2.25;;;18.80;1.00;21.10;94230.00;;;;7387579;19;20128;-75
2023/06/07 06:28:16;;;;;;;2.78;2.15;;;18.90;1.00;21.50;94236.00;;;;7389712;19;20592;-73
2023/06/07 06:30:51;;;;;;;3.47;2.65;;;19.10;1.00;21.70;94238.00;;;;7388851;19;20148;-73
2023/06/07 06:33:27;;;;;;;3.42;2.45;;;18.90;1.00;21.80;94238.00;;;;7387573;19;20129;-71
2023/06/07 06:36:04;;;;;;;3.03;2.65;;;18.90;1.00;21.50;94236.00;;;;7389186;19;20165;-71
2023/06/07 06:38:45;;;;;;;3.30;2.67;;;19.00;1.00;22.20;94245.00;;;;7386035;19;20180;-73
2023/06/07 06:41:21;;;;;;;2.30;2.10;;;19.10;1.00;22.20;94204.00;;;;7388500;19;20160;-73
2023/06/07 06:43:57;;;;;;;3.70;2.40;;;19.30;1.00;22.30;94248.00;;;;7388790;19;20643;-73
2023/06/07 06:46:26;;;;;;;3.00;1.98;;;19.50;1.00;22.60;94224.00;;;;7385926;19;20639;-73
2023/06/07 06:49:00;;;;;;;6.75;2.60;;;19.60;1.00;23.10;94227.00;;;;7389151;19;20127;-73
2023/06/07 06:51:43;;;;;;;5.10;2.67;;;19.90;1.00;23.20;94249.00;;;;7386632;19;20752;-72
2023/06/07 06:54:18;;;;;;;3.88;2.55;;;19.90;1.00;23.30;94238.00;;;;7388202;19;20621;-73
2023/06/07 06:56:53;;;;;;;5.50;2.58;;;20.00;1.00;22.90;94253.00;;;;7387667;19;20180;-73
2023/06/07 06:59:27;;;;;;;4.15;2.85;;;19.90;1.00;22.80;94264.00;;;;7386443;19;20121;-71
2023/06/07 07:02:01;;;;;;;8.07;2.88;;;19.90;1.00;22.90;94255.00;;;;7387008;19;20144;-73
2023/06/07 07:04:29;;;;;;;3.40;3.10;;;19.70;1.00;22.10;94261.00;;;;7389538;19;20196;-73
2023/06/07 07:07:03;;;;;;;5.35;2.90;;;19.50;1.00;21.70;94250.00;;;;7385673;19;20537;-71
2023/06/07 07:09:38;;;;;;;4.93;2.97;;;19.40;1.00;21.50;94276.00;;;;7388737;19;20125;-74
2023/06/07 07:12:06;;;;;;;4.68;3.20;;;19.30;1.00;20.80;94274.00;;;;7388429;19;20155;-74
2023/06/07 07:14:40;;;;;;;6.47;3.13;;;19.10;1.00;20.70;94278.00;;;;7388253;19;20476;-73
2023/06/07 07:17:15;;;;;;;4.07;3.40;;;19.00;1.00;20.60;94266.00;;;;7387818;19;20163;-72
2023/06/07 07:19:48;;;;;;;7.97;4.60;;;19.00;1.00;20.60;94273.00;;;;7389691;19;20143;-74
2023/06/07 07:22:15;;;;;;;7.20;3.10;;;19.00;1.00;21.00;94281.00;;;;7385357;19;20610;-73
2023/06/07 07:24:43;;;;;;;7.18;3.60;;;19.00;1.00;21.00;94277.00;;;;7388319;19;20125;-73
2023/06/07 07:27:18;;;;;;;6.40;4.35;;;19.10;1.00;21.30;94283.00;;;;7385243;19;20771;-72
2023/06/07 07:29:46;;;;;;;4.45;2.85;;;19.20;1.00;21.70;94239.00;;;;7385041;19;20172;-75
2023/06/07 07:32:16;;;;;;;5.32;3.53;;;19.20;1.00;21.80;94273.00;;;;7386673;19;20166;-72
2023/06/07 07:34:51;;;;;;;6.82;4.45;;;19.30;1.00;22.10;94265.00;;;;7388014;19;20669;-73
2023/06/07 07:37:19;;;;;;;3.15;2.70;;;19.40;1.00;22.00;94256.00;;;;7383726;19;20166;-72
2023/06/07 07:40:01;;;;;;;6.72;3.35;;;19.50;1.00;22.00;94284.00;;;;7387220;19;20596;-73
2023/06/07 07:42:31;;;;;;;4.88;3.20;;;19.40;1.00;21.90;94284.00;;;;7388374;19;20125;-72
2023/06/07 07:45:07;;;;;;;5.63;3.00;;;19.50;1.00;21.70;94280.00;;;;7386208;19;20200;-76
2023/06/07 07:47:34;;;;;;;3.17;2.88;;;19.60;1.00;21.60;94233.00;;;;7386029;19;20184;-74
2023/06/07 07:50:10;;;;;;;4.35;2.75;;;19.80;1.00;21.80;94272.00;;;;7386807;19;20825;-73
2023/06/07 07:52:38;;;;;;;3.17;2.80;;;19.90;1.00;21.90;94260.00;;;;7386457;19;20132;-74
2023/06/07 07:55:12;;;;;;;3.30;2.92;;;20.10;1.00;21.70;94254.00;;;;7386746;19;20486;-71
2023/06/07 07:57:40;;;;;;;4.95;2.60;;;20.20;1.00;21.90;94246.00;;;;7387416;19;20180;-74
2023/06/07 08:00:10;;;;;;;5.35;2.95;;;20.30;1.00;21.90;94260.00;;;;7384486;19;20663;-73
2023/06/07 08:02:44;;;;;;;5.32;3.33;;;20.40;1.00;21.70;94272.00;;;;7385170;19;20144;-75
2023/06/07 08:05:18;;;;;;;4.05;3.17;;;20.30;1.00;22.00;94243.00;;;;7385479;19;20148;-72
2023/06/07 08:07:56;;;;;;;9.00;3.10;;;20.40;1.00;21.90;94268.00;;;;7385785;19;20197;-78
2023/06/07 08:10:34;;;;;;;3.92;3.00;;;20.50;1.00;22.30;94273.00;;;;7383945;19;20226;-74
2023/06/07 08:13:07;;;;;;;4.90;3.08;;;20.70;1.00;22.40;94229.00;;;;7384837;19;20195;-73
2023/06/07 08:15:41;;;;;;;2.85;2.50;;;21.00;1.00;22.90;94254.00;;;;7384127;19;20145;-75
2023/06/07 08:18:18;;;;;;;5.63;2.92;;;21.20;1.00;23.30;94226.00;;;;7386193;19;20129;-73
2023/06/07 08:20:52;;;;;;;4.38;3.10;;;21.50;1.00;22.50;94281.00;;;;7385732;19;20211;-73
2023/06/07 08:23:26;;;;;;;4.68;2.78;;;21.40;1.00;21.30;94292.00;;;;7385959;19;20138;-75
2023/06/07 08:26:02;;;;;;;3.25;2.70;;;21.00;1.00;20.30;94302.00;;;;7382828;19;20616;-72
2023/06/07 08:28:29;;;;;;;2.72;2.50;;;20.40;1.00;20.10;94295.00;;;;7386110;19;20488;-72
2023/06/07 08:31:03;;;;;;;6.97;3.53;;;19.90;1.00;19.20;94271.00;;;;7386683;19;20197;-73
2023/06/07 08:33:38;;;;;;;3.85;2.85;;;19.40;1.00;19.90;94242.00;;;;7385997;19;20137;-73
2023/06/07 08:36:12;;;;;;;4.40;3.33;;;19.30;99.90;21.10;94265.00;;;;7386156;19;20124;-75
2023/06/07 08:38:46;;;;;;;3.55;3.17;;;19.50;99.90;22.40;94230.00;;;;7389877;19;20151;-73
2023/06/07 08:41:24;;;;;;;3.10;2.80;;;20.00;99.90;23.00;94256.00;;;;7391237;19;20132;-75
2023/06/07 08:43:51;;;;;;;4.10;2.88;;;20.70;99.90;24.10;94279.00;;;;7393695;19;20139;-75
2023/06/07 08:46:30;;;;;;;3.42;2.75;;;21.30;1.00;23.20;94228.00;;;;7392834;19;20479;-75
2023/06/07 08:49:01;;;;;;;3.50;2.50;;;21.60;1.00;24.30;94265.00;;;;7392787;19;20125;-72
2023/06/07 08:51:36;;;;;;;3.17;2.70;;;21.90;1.00;24.30;94237.00;;;;7392352;19;20139;-74
2023/06/07 08:54:15;;;;;;;4.30;3.08;;;22.20;1.00;24.60;94254.00;;;;7394424;19;20148;-74
2023/06/07 08:56:44;;;;;;;4.32;2.75;;;22.80;1.00;25.10;94255.00;;;;7390886;19;20129;-73
2023/06/07 08:59:26;;;;;;;3.85;2.72;;;23.10;1.00;25.60;94258.00;;;;7391536;19;20145;-76
2023/06/07 09:01:56;;;;;;;5.05;2.92;;;23.40;99.90;25.30;94256.00;;;;7390274;19;20174;-73
2023/06/07 09:04:30;;;;;;;2.53;2.33;;;23.20;1.00;25.10;94269.00;;;;7392997;19;20125;-74
2023/06/07 09:07:06;;;;;;;3.58;3.10;;;23.10;1.00;25.30;94236.00;;;;7389452;19;20188;-71
2023/06/07 09:09:41;;;;;;;3.35;2.80;;;23.30;1.00;25.80;94239.00;;;;7390791;19;20148;-73
2023/06/07 09:12:13;;;;;;;2.92;2.58;;;23.40;1.00;25.80;94261.00;;;;7391339;19;20649;-78
2023/06/07 09:14:47;;;;;;;5.63;2.60;;;23.60;1.40;26.20;94265.00;;;;7389864;19;20155;-75
2023/06/07 09:17:22;;;;;;;4.90;2.97;;;23.80;99.90;25.80;94263.00;;;;7393072;19;20699;-73
2023/06/07 09:19:58;;;;;;;2.65;2.45;;;23.90;99.90;25.20;94292.00;;;;7393871;19;20124;-74
2023/06/07 09:22:25;;;;;;;2.90;2.63;;;23.90;99.90;23.60;94268.00;;;;7390977;19;20639;-76
2023/06/07 09:25:08;;;;;;;5.90;2.47;;;23.50;99.90;23.00;94280.00;;;;7391780;19;20600;-72
2023/06/07 09:27:37;;;;;;;4.22;2.42;;;23.00;99.90;22.60;94276.00;;;;7389016;19;20520;-73
2023/06/07 09:30:14;;;;;;;2.40;2.20;;;22.60;99.90;23.40;94263.00;;;;7390839;19;20148;-72
2023/06/07 09:32:42;;;;;;;2.58;2.10;;;22.50;1.00;23.50;94290.00;;;;7390784;19;20137;-73
2023/06/07 09:35:19;;;;;;;3.28;2.30;;;22.80;99.90;22.90;94298.00;;;;7390636;19;20601;-73
2023/06/07 09:37:54;;;;;;;3.05;2.45;;;22.60;99.90;22.30;94285.00;;;;7388286;19;20651;-75
2023/06/07 09:40:29;;;;;;;3.72;2.58;;;22.20;1.00;22.30;94246.00;;;;7390433;19;20141;-75
2023/06/07 09:42:59;;;;;;;2.78;2.35;;;21.70;1.00;23.00;94283.00;;;;7391610;19;20185;-74
2023/06/07 09:45:33;;;;;;;2.65;2.30;;;21.90;1.00;22.50;94293.00;;;;7389283;19;20132;-75
2023/06/07 09:48:05;;;;;;;3.85;2.30;;;21.90;1.00;23.10;94252.00;;;;7388721;19;20120;-75
2023/06/07 09:50:55;;;;;;;4.28;2.40;;;21.90;1.00;24.90;94250.00;;;;7387667;19;20597;-74
2023/06/07 09:53:23;;;;;;;2.20;1.88;;;22.70;1.00;24.60;94285.00;;;;7390953;19;20151;-74
2023/06/07 09:56:16;;;;;;;2.50;2.10;;;23.40;1.00;25.00;94213.00;;;;7389151;19;20180;-79
2023/06/07 09:58:49;;;;;;;2.53;2.28;;;23.70;99.90;25.10;94251.00;;;;7389369;19;20215;-78
2023/06/07 10:01:37;;;;;;;2.10;1.90;;;24.10;99.90;25.70;94244.00;;;;7388436;19;20169;-74
2023/06/07 10:04:06;;;;;;;2.20;2.00;;;24.60;99.90;26.70;94216.00;;;;7391206;19;20121;-74
2023/06/07 10:06:43;;;;;;;3.03;2.00;;;25.20;99.90;27.90;94259.00;;;;7388416;19;20569;-74
2023/06/07 10:09:18;;;;;;;1.95;1.80;;;26.00;99.90;28.20;94257.00;;;;7390877;19;20140;-74
2023/06/07 10:11:57;;;;;;;4.05;2.40;;;26.50;99.90;26.40;94264.00;;;;7388757;19;20225;-75
2023/06/07 10:14:37;;;;;;;2.20;2.00;;;27.30;99.90;27.10;94249.00;;;;7389597;19;20470;-76
2023/06/07 10:17:15;;;;;;;3.55;1.90;;;27.30;99.90;26.90;94255.00;;;;7388099;19;20145;-74
2023/06/07 10:19:57;;;;;;;2.13;1.90;;;27.10;99.90;27.50;94232.00;;;;7390060;19;20124;-73
2023/06/07 10:22:41;;;;;;;3.63;1.80;;;27.50;99.90;28.00;94251.00;;;;7390774;19;20124;-74
2023/06/07 10:25:23;;;;;;;3.25;2.22;;;27.70;99.90;28.20;94242.00;;;;7388246;19;20498;-75
2023/06/07 10:28:14;;;;;;;2.20;2.00;;;28.10;99.90;28.30;94234.00;;;;7385736;19;20155;-74
2023/06/07 10:31:07;;;;;;;1.98;1.85;;;28.10;99.90;29.20;94220.00;;;;7389750;19;20505;-77
2023/06/07 10:33:44;;;;;;;5.20;1.98;;;28.30;99.90;28.60;94282.00;;;;7388465;19;20607;-79
2023/06/07 10:36:13;;;;;;;2.15;1.92;;;28.60;99.90;26.00;94265.00;;;;7389489;19;20158;-77
2023/06/07 10:39:01;;;;;;;2.50;1.80;;;27.90;99.90;26.20;94230.00;;;;7388179;19;20147;-78
2023/06/07 10:41:36;;;;;;;2.45;1.58;;;27.20;99.90;27.20;94289.00;;;;7389583;19;20151;-76
2023/06/07 10:44:11;;;;;;;2.15;1.90;;;26.70;99.90;25.70;94268.00;;;;7389885;19;20184;-78
2023/06/07 10:46:44;;;;;;;3.40;2.17;;;26.20;99.90;25.30;94235.00;;;;7388028;19;20128;-78
2023/06/07 10:49:36;;;;;;;2.00;1.70;;;25.80;99.90;26.70;94157.00;;;;7386634;19;20155;-78
2023/06/07 10:52:20;;;;;;;2.20;1.95;;;26.00;99.90;26.80;94232.00;;;;7388682;19;20477;-78
2023/06/07 10:54:49;;;;;;;2.47;2.00;;;26.30;99.90;28.00;94218.00;;;;7388229;19;20180;-79
2023/06/07 10:57:37;;;;;;;1.70;1.60;;;26.50;99.90;28.30;94223.00;;;;7389098;19;20188;-78
2023/06/07 11:00:33;;;;;;;2.60;1.70;;;26.80;99.90;29.00;94232.00;;;;7386956;19;20131;-78
2023/06/07 11:03:12;;;;;;;2.33;2.00;;;27.20;99.90;28.90;94226.00;;;;7386741;19;20465;-80
2023/06/07 11:05:58;;;;;;;3.42;1.75;;;27.60;99.90;29.60;94223.00;;;;7389868;19;20148;-79
2023/06/07 11:08:37;;;;;;;2.30;1.60;;;27.80;99.90;29.10;94251.00;;;;7390388;19;20465;-77
2023/06/07 11:11:44;;;;;;;2.22;1.73;;;28.00;99.90;27.10;94270.00;;;;7388018;19;20584;-77
2023/06/07 11:14:18;;;;;;;2.78;1.95;;;27.30;99.90;26.20;94255.00;;;;7389893;19;20132;-79
2023/06/07 11:16:52;;;;;;;1.65;1.55;;;26.70;99.90;26.30;94269.00;;;;7386949;19;20171;-80
2023/06/07 11:19:57;;;;;;;2.17;1.95;;;26.40;99.90;25.00;94274.00;;;;7386837;19;20171;-80
2023/06/07 11:22:31;;;;;;;1.80;1.70;;;26.00;99.90;24.10;94274.00;;;;7386558;19;20163;-80
2023/06/07 11:25:17;;;;;;;4.60;2.08;;;25.40;99.90;23.90;94266.00;;;;7390784;19;20463;-77
2023/06/07 11:27:53;;;;;;;2.03;1.85;;;24.70;99.90;24.20;94240.00;;;;7386613;19;20443;-77
2023/06/07 11:30:31;;;;;;;3.15;1.90;;;24.40;99.90;24.00;94267.00;;;;7387380;19;20129;-81
2023/06/07 11:33:06;;;;;;;3.88;2.15;;;24.20;99.90;23.80;94263.00;;;;7386405;19;20137;-77
2023/06/07 11:35:42;;;;;;;2.15;1.95;;;24.10;99.90;25.80;94189.00;;;;7388732;19;20143;-77